createdAt,value
2022-12-18T00:01:32.426Z,4.90
2022-12-18T00:03:59.365Z,5.00
2022-12-18T00:06:26.521Z,5.00
2022-12-18T00:08:53.354Z,5.00
2022-12-18T00:11:20.998Z,4.90
2022-12-18T00:13:47.727Z,4.80
2022-12-18T00:16:15.298Z,4.90
2022-12-18T00:18:42.313Z,4.80
2022-12-18T00:21:09.777Z,4.70
2022-12-18T00:23:36.881Z,4.60
2022-12-18T00:26:04.622Z,4.70
2022-12-18T00:28:31.447Z,4.80
2022-12-18T00:31:04.965Z,4.90
2022-12-18T00:33:31.912Z,4.90
2022-12-18T00:36:05.318Z,4.90
2022-12-18T00:38:32.100Z,4.90
2022-12-18T00:40:58.802Z,4.90
2022-12-18T00:43:25.638Z,5.00
2022-12-18T00:45:52.432Z,4.80
2022-12-18T00:48:19.184Z,4.90
2022-12-18T00:50:45.958Z,4.80
2022-12-18T00:53:12.852Z,4.70
2022-12-18T00:55:42.636Z,4.90
2022-12-18T00:58:09.727Z,4.50
2022-12-18T01:00:36.728Z,4.40
2022-12-18T01:03:03.836Z,4.50
2022-12-18T01:05:30.639Z,4.50
2022-12-18T01:07:57.615Z,4.70
2022-12-18T01:10:24.456Z,4.60
2022-12-18T01:12:51.097Z,4.60
2022-12-18T01:15:17.871Z,4.70
2022-12-18T01:17:44.699Z,4.60
2022-12-18T01:20:11.917Z,4.40
2022-12-18T01:22:38.617Z,4.20
2022-12-18T01:25:05.474Z,4.20
2022-12-18T01:27:32.388Z,4.40
2022-12-18T01:29:59.134Z,4.50
2022-12-18T01:32:25.784Z,4.50
2022-12-18T01:34:52.502Z,4.40
2022-12-18T01:37:19.128Z,4.40
2022-12-18T01:39:45.881Z,4.50
2022-12-18T01:42:13.141Z,4.50
2022-12-18T01:44:52.042Z,4.80
2022-12-18T01:47:19.444Z,5.00
2022-12-18T01:49:46.094Z,4.90
2022-12-18T01:52:12.774Z,4.70
2022-12-18T01:54:39.440Z,4.70
2022-12-18T01:57:06.140Z,4.60
2022-12-18T01:59:33.232Z,4.60
2022-12-18T02:02:00.552Z,4.60
2022-12-18T02:04:27.704Z,4.60
2022-12-18T02:07:12.950Z,4.70
2022-12-18T02:09:52.266Z,4.80
2022-12-18T02:12:22.849Z,5.00
2022-12-18T02:15:08.318Z,5.00
2022-12-18T02:17:39.347Z,5.00
2022-12-18T02:20:25.872Z,5.00
2022-12-18T02:23:13.656Z,5.00
2022-12-18T02:25:43.410Z,4.60
2022-12-18T02:28:12.179Z,4.50
2022-12-18T02:30:38.949Z,4.60
2022-12-18T02:33:06.000Z,4.80
2022-12-18T02:35:33.031Z,4.60
2022-12-18T02:37:59.782Z,4.80
2022-12-18T02:40:27.148Z,4.90
2022-12-18T02:42:53.818Z,4.90
2022-12-18T02:45:20.500Z,4.90
2022-12-18T02:47:48.088Z,4.80
2022-12-18T02:50:18.165Z,4.90
2022-12-18T02:53:02.282Z,4.70
2022-12-18T02:55:31.706Z,4.70
2022-12-18T02:58:05.371Z,4.70
2022-12-18T03:00:34.451Z,4.70
2022-12-18T03:03:06.581Z,4.70
2022-12-18T03:05:37.907Z,4.50
2022-12-18T03:08:06.564Z,4.40
2022-12-18T03:10:33.696Z,4.20
2022-12-18T03:13:10.483Z,4.20
2022-12-18T03:15:38.665Z,4.10
2022-12-18T03:18:06.208Z,4.30
2022-12-18T03:20:33.156Z,4.20
2022-12-18T03:23:01.230Z,4.00
2022-12-18T03:25:27.986Z,4.00
2022-12-18T03:27:55.977Z,4.20
2022-12-18T03:30:22.714Z,4.00
2022-12-18T03:32:56.542Z,4.10
2022-12-18T03:35:27.948Z,4.10
2022-12-18T03:37:54.637Z,4.00
2022-12-18T03:40:25.689Z,3.90
2022-12-18T03:42:52.883Z,4.00
2022-12-18T03:45:20.934Z,3.90
2022-12-18T03:47:50.632Z,3.60
2022-12-18T03:50:20.341Z,3.60
2022-12-18T03:52:58.583Z,3.30
2022-12-18T03:55:25.362Z,3.50
2022-12-18T03:57:52.147Z,3.50
2022-12-18T04:00:18.970Z,3.50
2022-12-18T04:02:50.611Z,3.50
2022-12-18T04:05:17.300Z,3.50
2022-12-18T04:07:43.988Z,3.50
2022-12-18T04:10:10.679Z,3.50
2022-12-18T04:12:37.895Z,3.60
2022-12-18T04:15:04.912Z,3.60
2022-12-18T04:17:31.692Z,3.70
2022-12-18T04:19:58.320Z,3.50
2022-12-18T04:22:24.968Z,3.20
2022-12-18T04:24:51.648Z,3.00
2022-12-18T04:27:18.515Z,3.20
2022-12-18T04:29:45.190Z,3.20
2022-12-18T04:32:11.898Z,3.10
2022-12-18T04:34:38.570Z,3.10
2022-12-18T04:37:05.350Z,3.30
2022-12-18T04:39:32.025Z,3.50
2022-12-18T04:42:01.596Z,3.60
2022-12-18T04:44:28.301Z,3.70
2022-12-18T04:46:54.996Z,3.70
2022-12-18T04:49:22.600Z,3.80
2022-12-18T04:51:49.249Z,3.50
2022-12-18T04:54:15.920Z,3.40
2022-12-18T04:56:42.717Z,3.20
2022-12-18T04:59:09.478Z,3.30
2022-12-18T05:01:36.187Z,3.00
2022-12-18T05:04:03.265Z,2.90
2022-12-18T05:06:29.975Z,2.80
2022-12-18T05:08:56.601Z,2.90
2022-12-18T05:11:23.286Z,2.80
2022-12-18T05:13:50.220Z,3.00
2022-12-18T05:16:17.225Z,3.10
2022-12-18T05:18:44.078Z,3.50
2022-12-18T05:21:10.759Z,3.80
2022-12-18T05:23:37.800Z,4.00
2022-12-18T05:26:05.217Z,4.00
2022-12-18T05:28:32.076Z,4.00
2022-12-18T05:30:59.349Z,3.70
2022-12-18T05:33:26.435Z,3.70
2022-12-18T05:35:57.354Z,3.80
2022-12-18T05:38:24.347Z,4.00
2022-12-18T05:40:51.179Z,4.10
2022-12-18T05:43:21.370Z,4.10
2022-12-18T05:45:48.880Z,4.10
2022-12-18T05:48:15.717Z,3.50
2022-12-18T05:50:42.764Z,3.10
2022-12-18T05:53:09.615Z,3.40
2022-12-18T05:55:36.971Z,3.50
2022-12-18T05:58:04.079Z,3.60
2022-12-18T06:00:31.433Z,3.70
2022-12-18T06:02:58.220Z,3.80
2022-12-18T06:05:24.954Z,3.60
2022-12-18T06:07:51.768Z,3.70
2022-12-18T06:10:18.672Z,3.70
2022-12-18T06:12:45.311Z,3.50
2022-12-18T06:15:12.051Z,3.50
2022-12-18T06:17:38.775Z,3.70
2022-12-18T06:20:05.792Z,3.70
2022-12-18T06:22:32.993Z,3.70
2022-12-18T06:25:00.379Z,3.70
2022-12-18T06:27:27.096Z,3.60
2022-12-18T06:29:54.229Z,3.70
2022-12-18T06:32:20.940Z,3.60
2022-12-18T06:34:47.639Z,3.60
2022-12-18T06:37:14.295Z,3.60
2022-12-18T06:39:40.968Z,3.50
2022-12-18T06:42:07.701Z,3.40
2022-12-18T06:44:34.966Z,3.50
2022-12-18T06:47:01.635Z,3.50
2022-12-18T06:49:30.565Z,3.80
2022-12-18T06:51:57.519Z,3.80
2022-12-18T06:54:24.176Z,3.70
2022-12-18T06:56:50.910Z,3.50
2022-12-18T06:59:17.802Z,3.60
2022-12-18T07:01:44.577Z,3.80
2022-12-18T07:04:11.371Z,3.80
2022-12-18T07:06:38.020Z,3.60
2022-12-18T07:09:04.726Z,3.80
2022-12-18T07:11:33.173Z,3.80
2022-12-18T07:13:59.847Z,3.80
2022-12-18T07:16:26.524Z,3.90
2022-12-18T07:18:53.909Z,4.00
2022-12-18T07:21:20.621Z,4.10
2022-12-18T07:23:49.246Z,4.10
2022-12-18T07:26:17.524Z,4.10
2022-12-18T07:28:44.736Z,4.20
2022-12-18T07:31:12.420Z,4.30
2022-12-18T07:33:39.579Z,4.30
2022-12-18T07:36:07.062Z,4.40
2022-12-18T07:38:34.354Z,4.20
2022-12-18T07:41:01.775Z,4.40
2022-12-18T07:43:28.463Z,4.30
2022-12-18T07:45:55.284Z,4.30
2022-12-18T07:48:22.019Z,4.30
2022-12-18T07:50:48.669Z,4.30
2022-12-18T07:53:15.526Z,4.50
2022-12-18T07:56:17.920Z,4.40
2022-12-18T07:58:29.444Z,4.20
2022-12-18T08:01:03.012Z,4.10
2022-12-18T08:03:29.697Z,4.00
2022-12-18T08:05:59.534Z,3.90
2022-12-18T08:08:26.280Z,4.00
2022-12-18T08:10:53.018Z,4.20
2022-12-18T08:13:19.702Z,4.30
2022-12-18T08:15:46.352Z,4.40
2022-12-18T08:18:14.554Z,4.60
2022-12-18T08:20:41.418Z,4.80
2022-12-18T08:23:08.092Z,5.00
2022-12-18T08:25:34.854Z,4.80
2022-12-18T08:28:01.490Z,3.90
2022-12-18T08:30:28.356Z,3.90
2022-12-18T08:32:55.658Z,4.20
2022-12-18T08:35:22.690Z,4.40
2022-12-18T08:37:49.332Z,4.40
2022-12-18T08:40:16.027Z,4.50
2022-12-18T08:43:01.293Z,4.40
2022-12-18T08:45:28.363Z,4.60
2022-12-18T08:47:55.106Z,5.70
2022-12-18T08:50:22.043Z,6.40
2022-12-18T08:52:48.764Z,7.20
2022-12-18T08:55:15.553Z,8.20
2022-12-18T08:57:42.226Z,7.90
2022-12-18T09:00:10.798Z,8.90
2022-12-18T09:02:37.608Z,10.60
2022-12-18T09:05:04.600Z,11.40
2022-12-18T09:07:31.312Z,12.50
2022-12-18T09:09:58.075Z,11.40
2022-12-18T09:12:24.787Z,9.80
2022-12-18T09:14:51.540Z,8.90
2022-12-18T09:17:18.366Z,7.90
2022-12-18T09:19:45.099Z,7.20
2022-12-18T09:22:11.784Z,6.90
2022-12-18T09:24:38.530Z,6.50
2022-12-18T09:27:05.371Z,6.30
2022-12-18T09:29:33.095Z,6.20
2022-12-18T09:31:59.732Z,6.20
2022-12-18T09:34:26.418Z,6.60
2022-12-18T09:36:53.046Z,7.70
2022-12-18T09:39:19.703Z,6.70
2022-12-18T09:41:54.742Z,7.80
2022-12-18T09:44:26.105Z,8.40
2022-12-18T09:46:52.856Z,9.30
2022-12-18T09:49:19.937Z,9.20
2022-12-18T09:51:52.192Z,10.70
2022-12-18T09:54:26.883Z,11.00
2022-12-18T09:56:54.589Z,11.50
2022-12-18T09:59:37.376Z,11.10
2022-12-18T10:02:22.278Z,11.90
2022-12-18T10:05:12.449Z,11.80
2022-12-18T10:07:42.077Z,11.80
2022-12-18T10:10:11.641Z,12.80
2022-12-18T10:12:41.908Z,11.80
2022-12-18T10:15:08.556Z,12.40
2022-12-18T10:17:35.220Z,11.80
2022-12-18T10:20:03.286Z,11.10
2022-12-18T10:22:30.111Z,10.30
2022-12-18T10:25:00.784Z,9.90
2022-12-18T10:27:27.661Z,9.30
2022-12-18T10:29:54.435Z,8.60
2022-12-18T10:32:22.042Z,8.60
2022-12-18T10:34:49.405Z,8.60
2022-12-18T10:37:20.012Z,8.30
2022-12-18T10:40:06.912Z,8.40
2022-12-18T10:42:37.241Z,8.30
2022-12-18T10:45:10.099Z,7.80
2022-12-18T10:47:36.792Z,7.60
2022-12-18T10:50:03.501Z,6.80
2022-12-18T10:52:30.154Z,6.90
2022-12-18T10:55:02.773Z,7.00
2022-12-18T10:57:29.400Z,7.30
2022-12-18T10:59:57.297Z,7.30
2022-12-18T11:02:37.273Z,7.70
2022-12-18T11:05:04.276Z,8.00
2022-12-18T11:07:47.709Z,8.00
2022-12-18T11:10:16.958Z,7.90
2022-12-18T11:12:43.696Z,8.20
2022-12-18T11:15:17.862Z,8.70
2022-12-18T11:17:45.137Z,9.00
2022-12-18T11:20:24.114Z,9.40
2022-12-18T11:23:04.445Z,9.00
2022-12-18T11:25:33.328Z,8.70
2022-12-18T11:28:05.683Z,8.60
2022-12-18T11:30:38.531Z,8.00
2022-12-18T11:33:05.172Z,7.90
2022-12-18T11:35:44.188Z,7.90
2022-12-18T11:38:13.694Z,8.60
2022-12-18T11:40:41.690Z,8.80
2022-12-18T11:43:13.975Z,8.60
2022-12-18T11:45:59.790Z,8.70
2022-12-18T11:48:28.295Z,10.20
2022-12-18T11:50:55.813Z,12.10
2022-12-18T11:53:22.705Z,12.50
2022-12-18T11:55:52.373Z,13.30
2022-12-18T11:58:31.703Z,13.10
2022-12-18T12:01:01.269Z,14.20
2022-12-18T12:03:31.272Z,14.60
2022-12-18T12:06:01.053Z,15.30
2022-12-18T12:08:57.210Z,14.40
2022-12-18T12:11:53.186Z,14.70
2022-12-18T12:14:19.841Z,14.60
2022-12-18T12:16:55.616Z,14.50
2022-12-18T12:19:28.451Z,14.40
2022-12-18T12:22:13.689Z,14.40
2022-12-18T12:24:43.471Z,14.80
2022-12-18T12:27:10.124Z,15.20
2022-12-18T12:29:40.931Z,14.60
2022-12-18T12:32:26.058Z,14.20
2022-12-18T12:35:02.591Z,14.20
2022-12-18T12:37:34.470Z,13.60
2022-12-18T12:40:07.289Z,13.30
2022-12-18T12:43:07.595Z,11.60
2022-12-18T12:45:35.763Z,10.40
2022-12-18T12:48:02.854Z,11.70
2022-12-18T12:50:29.584Z,11.90
2022-12-18T12:52:56.788Z,11.80
2022-12-18T12:55:24.347Z,12.30
2022-12-18T12:57:52.264Z,11.60
2022-12-18T13:00:20.255Z,10.70
2022-12-18T13:03:06.127Z,11.10
2022-12-18T13:05:39.823Z,11.90
2022-12-18T13:08:10.057Z,11.60
2022-12-18T13:10:37.750Z,10.80
2022-12-18T13:13:10.546Z,10.10
2022-12-18T13:15:40.757Z,10.40
2022-12-18T13:18:10.488Z,10.80
2022-12-18T13:20:37.399Z,10.50
2022-12-18T13:23:23.496Z,9.30
2022-12-18T13:25:50.605Z,8.70
2022-12-18T13:28:17.521Z,7.80
2022-12-18T13:30:50.859Z,7.80
2022-12-18T13:33:19.432Z,7.40
2022-12-18T13:35:49.835Z,7.40
2022-12-18T13:38:31.886Z,7.30
2022-12-18T13:40:59.547Z,7.30
2022-12-18T13:43:44.346Z,7.30
2022-12-18T13:46:30.046Z,6.90
2022-12-18T13:48:58.077Z,6.70
2022-12-18T13:51:24.999Z,6.60
2022-12-18T13:54:01.432Z,6.60
2022-12-18T13:56:29.531Z,6.40
2022-12-18T13:59:15.109Z,6.40
2022-12-18T14:01:47.074Z,6.40
2022-12-18T14:04:40.379Z,6.40
2022-12-18T14:07:08.138Z,6.30
2022-12-18T14:09:36.345Z,6.30
2022-12-18T14:12:22.820Z,6.40
2022-12-18T14:14:49.883Z,6.40
2022-12-18T14:17:19.768Z,6.30
2022-12-18T14:19:47.147Z,6.30
2022-12-18T14:22:17.958Z,6.20
2022-12-18T14:24:44.676Z,6.20
2022-12-18T14:27:20.623Z,6.20
2022-12-18T14:29:47.331Z,6.30
2022-12-18T14:32:18.292Z,6.30
2022-12-18T14:35:09.605Z,6.10
2022-12-18T14:37:36.310Z,6.10
2022-12-18T14:40:10.615Z,6.00
2022-12-18T14:42:37.970Z,5.90
2022-12-18T14:45:23.743Z,5.90
2022-12-18T14:47:50.507Z,5.80
2022-12-18T14:50:17.301Z,5.80
2022-12-18T14:52:44.014Z,5.60
2022-12-18T14:55:16.046Z,5.50
2022-12-18T14:57:44.432Z,5.50
2022-12-18T15:00:18.639Z,5.40
2022-12-18T15:02:46.682Z,5.30
2022-12-18T15:05:13.526Z,5.20
2022-12-18T15:07:43.641Z,5.10
2022-12-18T15:10:15.395Z,5.30
2022-12-18T15:12:51.694Z,5.20
2022-12-18T15:15:33.810Z,5.20
2022-12-18T15:18:00.626Z,5.10
2022-12-18T15:20:27.338Z,5.00
2022-12-18T15:22:54.060Z,5.00
2022-12-18T15:25:41.031Z,5.00
2022-12-18T15:28:20.948Z,4.90
2022-12-18T15:31:06.447Z,4.90
2022-12-18T15:33:40.367Z,4.90
2022-12-18T15:36:11.157Z,5.00
2022-12-18T15:38:37.884Z,4.80
2022-12-18T15:41:04.786Z,4.80
2022-12-18T15:43:35.906Z,4.70
2022-12-18T15:46:02.617Z,4.70
2022-12-18T15:48:29.394Z,4.70
2022-12-18T15:50:57.861Z,4.60
2022-12-18T15:53:24.920Z,4.60
2022-12-18T15:56:10.232Z,4.50
2022-12-18T15:58:37.169Z,4.60
2022-12-18T16:01:03.988Z,4.60
2022-12-18T16:03:31.007Z,4.70
2022-12-18T16:05:59.402Z,4.70
2022-12-18T16:08:26.790Z,4.60
2022-12-18T16:10:53.517Z,4.70
2022-12-18T16:13:20.193Z,4.40
2022-12-18T16:15:46.934Z,4.40
2022-12-18T16:18:13.608Z,4.10
2022-12-18T16:20:40.304Z,3.80
2022-12-18T16:23:07.066Z,3.80
2022-12-18T16:25:33.779Z,3.80
2022-12-18T16:28:00.478Z,3.40
2022-12-18T16:30:34.020Z,3.40
2022-12-18T16:33:05.443Z,3.50
2022-12-18T16:35:33.564Z,3.40
2022-12-18T16:38:00.325Z,3.70
2022-12-18T16:40:27.085Z,3.90
2022-12-18T16:42:53.808Z,3.90
2022-12-18T16:45:20.592Z,4.00
2022-12-18T16:47:47.394Z,3.80
2022-12-18T16:50:14.427Z,3.90
2022-12-18T16:52:41.589Z,3.80
2022-12-18T16:55:08.628Z,3.90
2022-12-18T16:57:35.356Z,3.90
2022-12-18T17:00:05.730Z,3.90
2022-12-18T17:02:33.502Z,3.70
2022-12-18T17:05:00.563Z,3.50
2022-12-18T17:07:28.087Z,3.20
2022-12-18T17:09:55.252Z,3.00
2022-12-18T17:12:22.177Z,3.10
2022-12-18T17:14:49.035Z,3.20
2022-12-18T17:17:23.804Z,3.30
2022-12-18T17:19:51.492Z,3.30
2022-12-18T17:22:18.158Z,3.00
2022-12-18T17:24:45.058Z,2.70
2022-12-18T17:27:11.813Z,2.50
2022-12-18T17:29:43.953Z,2.70
2022-12-18T17:32:13.818Z,3.00
2022-12-18T17:34:40.755Z,3.10
2022-12-18T17:37:07.629Z,2.50
2022-12-18T17:39:34.441Z,2.20
2022-12-18T17:42:01.395Z,2.50
2022-12-18T17:44:28.103Z,2.50
2022-12-18T17:46:54.860Z,2.40
2022-12-18T17:49:21.714Z,2.50
2022-12-18T17:51:48.869Z,2.50
2022-12-18T17:54:15.606Z,2.30
2022-12-18T17:56:42.343Z,2.50
2022-12-18T17:59:09.525Z,2.30
2022-12-18T18:01:42.396Z,2.60
2022-12-18T18:04:11.122Z,2.70
2022-12-18T18:06:39.068Z,2.50
2022-12-18T18:09:06.658Z,2.70
2022-12-18T18:11:56.402Z,2.70
2022-12-18T18:14:23.229Z,2.70
2022-12-18T18:16:50.804Z,2.80
2022-12-18T18:19:18.443Z,2.50
2022-12-18T18:21:46.325Z,2.50
2022-12-18T18:24:14.041Z,2.40
2022-12-18T18:26:41.705Z,2.40
2022-12-18T18:29:08.535Z,2.20
2022-12-18T18:31:35.869Z,2.30
2022-12-18T18:34:07.950Z,2.20
2022-12-18T18:36:34.892Z,2.20
2022-12-18T18:39:02.310Z,2.30
2022-12-18T18:41:30.644Z,2.30
2022-12-18T18:43:57.443Z,2.40
2022-12-18T18:46:24.175Z,2.40
2022-12-18T18:48:50.927Z,2.40
2022-12-18T18:51:21.097Z,2.40
2022-12-18T18:53:49.154Z,2.30
2022-12-18T18:56:45.361Z,2.00
2022-12-18T18:59:03.235Z,1.90
2022-12-18T19:01:30.125Z,1.80
2022-12-18T19:03:56.908Z,1.80
2022-12-18T19:06:24.240Z,1.90
2022-12-18T19:08:51.388Z,1.70
2022-12-18T19:11:37.099Z,1.60
2022-12-18T19:14:04.735Z,1.60
2022-12-18T19:16:31.884Z,1.50
2022-12-18T19:19:01.885Z,1.50
2022-12-18T19:21:31.348Z,1.60
2022-12-18T19:24:00.178Z,2.00
2022-12-18T19:26:28.207Z,2.10
2022-12-18T19:29:00.141Z,2.20
2022-12-18T19:31:31.747Z,2.30
2022-12-18T19:34:01.819Z,2.40
2022-12-18T19:36:29.169Z,2.50
2022-12-18T19:38:57.471Z,2.50
2022-12-18T19:41:24.518Z,2.50
2022-12-18T19:43:52.496Z,2.30
2022-12-18T19:46:20.094Z,1.90
2022-12-18T19:48:47.116Z,1.40
2022-12-18T19:51:14.533Z,1.20
2022-12-18T19:53:41.319Z,1.00
2022-12-18T19:56:08.644Z,1.10
2022-12-18T19:58:35.503Z,1.10
2022-12-18T20:01:02.234Z,1.10
2022-12-18T20:03:32.833Z,1.10
2022-12-18T20:06:08.940Z,1.00
2022-12-18T20:08:35.728Z,1.40
2022-12-18T20:11:02.464Z,1.70
2022-12-18T20:13:29.738Z,1.90
2022-12-18T20:15:56.524Z,2.00
2022-12-18T20:18:23.227Z,1.90
2022-12-18T20:20:50.323Z,1.90
2022-12-18T20:23:18.410Z,2.00
2022-12-18T20:25:45.253Z,1.90
2022-12-18T20:28:11.996Z,2.10
2022-12-18T20:30:38.862Z,2.10
2022-12-18T20:33:05.504Z,2.00
2022-12-18T20:35:33.115Z,1.60
2022-12-18T20:38:00.228Z,1.50
2022-12-18T20:40:27.799Z,1.60
2022-12-18T20:42:54.535Z,1.40
2022-12-18T20:45:21.176Z,1.50
2022-12-18T20:47:47.804Z,1.50
2022-12-18T20:50:14.587Z,1.30
2022-12-18T20:52:41.262Z,1.00
2022-12-18T20:55:08.041Z,0.80
2022-12-18T20:57:38.891Z,0.70
2022-12-18T21:00:06.902Z,0.50
2022-12-18T21:02:33.800Z,0.40
2022-12-18T21:05:00.631Z,0.80
2022-12-18T21:07:27.569Z,1.00
2022-12-18T21:09:54.386Z,0.70
2022-12-18T21:12:48.164Z,0.60
2022-12-18T21:15:28.744Z,1.10
2022-12-18T21:17:55.756Z,1.30
2022-12-18T21:20:22.581Z,1.30
2022-12-18T21:22:49.501Z,1.30
2022-12-18T21:25:16.345Z,1.40
2022-12-18T21:27:42.978Z,1.40
2022-12-18T21:30:09.822Z,1.40
2022-12-18T21:32:36.708Z,1.10
2022-12-18T21:35:03.814Z,1.00
2022-12-18T21:37:30.488Z,1.20
2022-12-18T21:39:57.214Z,1.30
2022-12-18T21:42:42.333Z,1.40
2022-12-18T21:45:09.140Z,1.30
2022-12-18T21:47:35.776Z,1.20
2022-12-18T21:50:02.456Z,0.90
2022-12-18T21:52:32.372Z,0.50
2022-12-18T21:55:06.616Z,0.40
2022-12-18T21:57:35.645Z,0.70
2022-12-18T22:04:57.415Z,1.10
2022-12-18T22:07:24.307Z,1.00
2022-12-18T22:09:51.106Z,1.00
2022-12-18T22:12:35.364Z,1.10
2022-12-18T22:15:03.413Z,1.20
2022-12-18T22:17:30.153Z,0.70
2022-12-18T22:19:57.291Z,0.90
2022-12-18T22:22:24.150Z,0.80
2022-12-18T22:24:50.828Z,1.00
2022-12-18T22:27:17.459Z,0.90
2022-12-18T22:30:02.851Z,0.50
2022-12-18T22:32:31.202Z,0.70
2022-12-18T22:35:04.918Z,0.90
2022-12-18T22:37:33.887Z,0.70
2022-12-18T22:40:03.084Z,0.70
2022-12-18T22:42:30.699Z,0.60
2022-12-18T22:44:57.462Z,0.70
2022-12-18T22:47:27.994Z,0.80
2022-12-18T22:49:56.543Z,0.50
2022-12-18T22:52:23.831Z,0.50
2022-12-18T22:54:53.371Z,0.70
2022-12-18T22:57:21.765Z,0.30
2022-12-18T22:59:49.276Z,0.60
2022-12-18T23:02:17.813Z,0.70
2022-12-18T23:04:45.070Z,0.80
2022-12-18T23:07:11.865Z,0.80
2022-12-18T23:09:39.497Z,0.80
2022-12-18T23:12:06.418Z,0.50
2022-12-18T23:14:33.351Z,0.70
2022-12-18T23:17:00.033Z,0.80
2022-12-18T23:19:26.785Z,1.00
2022-12-18T23:21:54.830Z,0.90
2022-12-18T23:24:23.757Z,0.90
2022-12-18T23:26:50.412Z,0.70
2022-12-18T23:29:17.086Z,0.70
2022-12-18T23:31:43.893Z,0.70
2022-12-18T23:34:11.935Z,0.60
2022-12-18T23:36:45.864Z,0.70
2022-12-18T23:39:29.082Z,0.60
2022-12-18T23:42:00.131Z,0.80
2022-12-18T23:44:27.023Z,1.00
2022-12-18T23:46:53.786Z,1.00
2022-12-18T23:49:20.487Z,1.10
2022-12-18T23:51:47.170Z,1.10
2022-12-18T23:54:13.800Z,1.10
2022-12-18T23:56:40.530Z,1.00
2022-12-18T23:59:07.282Z,1.00
